INDIA METEOROLOGICAL DEPARTMENT, R.M.C. NEW DELHI
Dated:11 - 7 - 2020
METARS OF ALTERNATE AIRPORTS
Delhi      
VIDP 101830Z 19004KT 3500 HZ SCT030 FEW035CB BKN090 31/22 Q0997 TEMPO 29010G25KT 1500 TSRA=
Lucknow    
VILK 101830Z 00000KT 3000 BR SCT020 FEW030CB OVC090 28/27 Q0997 NOSIG=
Jaipur     
VIJP 101830Z 23008KT 3000 HZ SCT030 SCT100 33/22 Q0999 NOSIG=
Ahmedabad  
VAAH 101800Z 21007KT 4000 HZ FEW015 SCT020 BKN080 28/26 Q1003 NOSIG=
Mumbai     
VABB 101830Z 20006KT 2500 HZ SCT018 FEW030CB SCT100 29/27 Q1005 NOSIG=